King's Lynn, United Kingdom
Current Conditions -  °F | °C
As of 8:50 AM on Friday 31 Oct 2014 (Local Time) from EGYM Reporting Station
Haze Haze  
Wind Chill: 59°   Ceiling: 24000
Heat Index: 59°   Visibility: 4mi
Dew Point: 55°   Wind: 10mph
Humidity: 88%   Direction: 170°S
Pressure: 30.03"   Gusts: NA
Location:  52.75°N, 0.4°E
Report Text: EGYM 310850Z 17009KT 6000 HZ FEW140 BKN240 15/13 Q1017 WHT BECMG 8000 BLU
Loading
Personal Weather Stations






























Interactive Weather Map
Tropical Storm Tracking
New forecast layout! Learn more

10-Day Weather Forecast

Advertisements
Track Severe Weather on mobile